ルサカ の空港の天気 - METARとTAF

ケネスカウンダ国際空港 ( FLKK / LUN ) - ザンビア ルサカ
飛行場実況気象(Metar)
観測時間04/24 17:00 CAT (04/24 15:00 UTC)
風向・風速東 5m/s
視程10km以上
天気現象
なし
気温27℃
湿度45%
気圧1019hPa
METARFLKK 241500Z 09010KT 9999 CAVOK 27/14 Q1019
過去の天気等 Google飛行場航空写真 Wunderground天気予報

過去48時間のMETAR

飛行場予報(TAF)
データがありません